Terminal Aerodrome Forecast
Issued by NWS Blacksburg, VA

Home | Current Version | Previous Version | Text Only | Print | Product List | Glossary On
Versions: 1 2 3 4 5 6 7 8 9 10 11 12 13
000
FTUS41 KRNK 241727
TAFROA
TAF
KROA 241727Z 2418/2518 VRB06KT P6SM SCT060
     FM242300 36003KT P6SM SCT060
     FM250500 02003KT 6SM BR OVC025=

USA.gov is the U.S. government's official web portal to all federal, state and local government web resources and services.